sensor_id;sensor_type;location;lat;lon;timestamp;temperature;humidity
73322;DHT22;61549;37.044;22.128;2022-10-16T00:02:06;22.40;44.40
73322;DHT22;61549;37.044;22.128;2022-10-16T00:04:33;22.40;44.50
73322;DHT22;61549;37.044;22.128;2022-10-16T00:06:59;22.40;44.70
73322;DHT22;61549;37.044;22.128;2022-10-16T00:09:25;22.40;44.80
73322;DHT22;61549;37.044;22.128;2022-10-16T00:11:51;22.40;44.70
73322;DHT22;61549;37.044;22.128;2022-10-16T00:14:17;22.40;44.90
73322;DHT22;61549;37.044;22.128;2022-10-16T00:16:42;22.40;44.80
73322;DHT22;61549;37.044;22.128;2022-10-16T00:19:10;22.30;44.60
73322;DHT22;61549;37.044;22.128;2022-10-16T00:21:37;22.30;44.90
73322;DHT22;61549;37.044;22.128;2022-10-16T00:24:05;22.30;45.40
73322;DHT22;61549;37.044;22.128;2022-10-16T00:26:33;22.30;45.80
73322;DHT22;61549;37.044;22.128;2022-10-16T00:28:59;22.30;45.30
73322;DHT22;61549;37.044;22.128;2022-10-16T00:31:26;22.30;45.00
73322;DHT22;61549;37.044;22.128;2022-10-16T00:33:52;22.30;45.10
73322;DHT22;61549;37.044;22.128;2022-10-16T00:36:20;22.30;45.00
73322;DHT22;61549;37.044;22.128;2022-10-16T00:38:47;22.30;45.50
73322;DHT22;61549;37.044;22.128;2022-10-16T00:41:16;22.30;46.30
73322;DHT22;61549;37.044;22.128;2022-10-16T00:43:52;22.30;45.80
73322;DHT22;61549;37.044;22.128;2022-10-16T00:46:38;22.30;45.20
73322;DHT22;61549;37.044;22.128;2022-10-16T00:49:10;22.30;45.00
73322;DHT22;61549;37.044;22.128;2022-10-16T00:51:40;22.30;45.20
73322;DHT22;61549;37.044;22.128;2022-10-16T00:54:14;22.30;46.10
73322;DHT22;61549;37.044;22.128;2022-10-16T00:56:41;22.30;45.60
73322;DHT22;61549;37.044;22.128;2022-10-16T01:01:46;22.20;47.10
73322;DHT22;61549;37.044;22.128;2022-10-16T01:04:12;22.20;47.20
73322;DHT22;61549;37.044;22.128;2022-10-16T01:06:52;22.20;47.10
73322;DHT22;61549;37.044;22.128;2022-10-16T01:14:45;22.10;46.90
73322;DHT22;61549;37.044;22.128;2022-10-16T01:17:21;22.10;45.90
73322;DHT22;61549;37.044;22.128;2022-10-16T01:20:11;22.10;45.50
73322;DHT22;61549;37.044;22.128;2022-10-16T01:25:15;22.00;45.60
73322;DHT22;61549;37.044;22.128;2022-10-16T01:27:58;22.10;45.60
73322;DHT22;61549;37.044;22.128;2022-10-16T01:30:31;22.10;45.60
73322;DHT22;61549;37.044;22.128;2022-10-16T01:33:04;22.10;45.10
73322;DHT22;61549;37.044;22.128;2022-10-16T01:35:39;22.00;45.00
73322;DHT22;61549;37.044;22.128;2022-10-16T01:38:14;22.00;44.70
73322;DHT22;61549;37.044;22.128;2022-10-16T01:40:46;22.00;44.60
73322;DHT22;61549;37.044;22.128;2022-10-16T01:43:16;22.10;44.70
73322;DHT22;61549;37.044;22.128;2022-10-16T01:45:44;22.10;44.40
73322;DHT22;61549;37.044;22.128;2022-10-16T01:48:17;22.10;44.40
73322;DHT22;61549;37.044;22.128;2022-10-16T01:50:56;22.10;44.60
73322;DHT22;61549;37.044;22.128;2022-10-16T01:53:24;22.10;44.60
73322;DHT22;61549;37.044;22.128;2022-10-16T01:55:52;22.10;44.50
73322;DHT22;61549;37.044;22.128;2022-10-16T01:58:20;22.10;44.40
73322;DHT22;61549;37.044;22.128;2022-10-16T02:00:47;22.10;44.50
73322;DHT22;61549;37.044;22.128;2022-10-16T02:03:17;22.10;44.60
73322;DHT22;61549;37.044;22.128;2022-10-16T02:05:53;22.20;44.90
73322;DHT22;61549;37.044;22.128;2022-10-16T02:08:21;22.20;45.00
73322;DHT22;61549;37.044;22.128;2022-10-16T02:10:48;22.10;44.60
73322;DHT22;61549;37.044;22.128;2022-10-16T02:13:22;22.00;44.70
73322;DHT22;61549;37.044;22.128;2022-10-16T02:15:49;22.00;45.90
73322;DHT22;61549;37.044;22.128;2022-10-16T02:18:15;22.00;47.80
73322;DHT22;61549;37.044;22.128;2022-10-16T02:21:10;22.00;45.50
73322;DHT22;61549;37.044;22.128;2022-10-16T02:29:38;21.90;44.90
73322;DHT22;61549;37.044;22.128;2022-10-16T02:32:06;22.00;45.10
73322;DHT22;61549;37.044;22.128;2022-10-16T02:34:34;21.90;44.90
73322;DHT22;61549;37.044;22.128;2022-10-16T02:37:02;21.90;44.90
73322;DHT22;61549;37.044;22.128;2022-10-16T02:39:29;22.00;45.00
73322;DHT22;61549;37.044;22.128;2022-10-16T02:41:56;22.00;45.00
73322;DHT22;61549;37.044;22.128;2022-10-16T02:44:22;22.00;44.80
73322;DHT22;61549;37.044;22.128;2022-10-16T02:46:47;22.00;45.00
73322;DHT22;61549;37.044;22.128;2022-10-16T02:49:13;22.00;45.00
73322;DHT22;61549;37.044;22.128;2022-10-16T02:51:39;22.10;44.80
73322;DHT22;61549;37.044;22.128;2022-10-16T02:54:05;22.10;44.70
73322;DHT22;61549;37.044;22.128;2022-10-16T02:56:32;22.10;44.80
73322;DHT22;61549;37.044;22.128;2022-10-16T02:58:58;22.10;44.80
73322;DHT22;61549;37.044;22.128;2022-10-16T03:01:25;22.10;44.90
73322;DHT22;61549;37.044;22.128;2022-10-16T03:03:50;22.10;44.90
73322;DHT22;61549;37.044;22.128;2022-10-16T03:06:16;22.10;44.90
73322;DHT22;61549;37.044;22.128;2022-10-16T03:08:42;22.00;45.20
73322;DHT22;61549;37.044;22.128;2022-10-16T03:11:08;22.10;45.90
73322;DHT22;61549;37.044;22.128;2022-10-16T03:13:34;22.00;45.40
73322;DHT22;61549;37.044;22.128;2022-10-16T03:16:00;22.00;45.20
73322;DHT22;61549;37.044;22.128;2022-10-16T03:18:26;22.00;45.30
73322;DHT22;61549;37.044;22.128;2022-10-16T03:20:51;22.00;45.50
73322;DHT22;61549;37.044;22.128;2022-10-16T03:23:17;22.00;45.60
73322;DHT22;61549;37.044;22.128;2022-10-16T03:25:43;22.00;45.60
73322;DHT22;61549;37.044;22.128;2022-10-16T03:28:09;22.00;45.30
73322;DHT22;61549;37.044;22.128;2022-10-16T03:30:39;21.90;45.30
73322;DHT22;61549;37.044;22.128;2022-10-16T03:33:05;22.00;45.30
73322;DHT22;61549;37.044;22.128;2022-10-16T03:35:31;21.90;45.60
73322;DHT22;61549;37.044;22.128;2022-10-16T03:37:59;21.90;46.50
73322;DHT22;61549;37.044;22.128;2022-10-16T03:40:25;21.90;46.20
73322;DHT22;61549;37.044;22.128;2022-10-16T03:42:51;21.80;47.20
73322;DHT22;61549;37.044;22.128;2022-10-16T03:45:17;21.90;47.10
73322;DHT22;61549;37.044;22.128;2022-10-16T03:47:43;21.80;47.10
73322;DHT22;61549;37.044;22.128;2022-10-16T03:50:09;21.80;48.00
73322;DHT22;61549;37.044;22.128;2022-10-16T03:52:35;21.80;47.80
73322;DHT22;61549;37.044;22.128;2022-10-16T03:55:00;21.80;47.80
73322;DHT22;61549;37.044;22.128;2022-10-16T03:57:26;21.80;48.10
73322;DHT22;61549;37.044;22.128;2022-10-16T03:59:52;21.70;48.90
73322;DHT22;61549;37.044;22.128;2022-10-16T04:02:18;21.60;47.10
73322;DHT22;61549;37.044;22.128;2022-10-16T04:04:44;21.50;45.20
73322;DHT22;61549;37.044;22.128;2022-10-16T04:07:09;21.50;45.10
73322;DHT22;61549;37.044;22.128;2022-10-16T04:09:35;21.40;44.60
73322;DHT22;61549;37.044;22.128;2022-10-16T04:12:01;21.50;43.90
73322;DHT22;61549;37.044;22.128;2022-10-16T04:14:27;21.50;44.10
73322;DHT22;61549;37.044;22.128;2022-10-16T04:16:53;21.50;44.90
73322;DHT22;61549;37.044;22.128;2022-10-16T04:19:19;21.40;43.90
73322;DHT22;61549;37.044;22.128;2022-10-16T04:21:44;21.40;44.30
73322;DHT22;61549;37.044;22.128;2022-10-16T04:24:10;21.50;45.20
73322;DHT22;61549;37.044;22.128;2022-10-16T04:26:37;21.50;45.60
73322;DHT22;61549;37.044;22.128;2022-10-16T04:29:03;21.60;47.90
73322;DHT22;61549;37.044;22.128;2022-10-16T04:31:29;21.60;47.50
73322;DHT22;61549;37.044;22.128;2022-10-16T04:33:54;21.60;45.00
73322;DHT22;61549;37.044;22.128;2022-10-16T04:36:20;21.50;45.10
73322;DHT22;61549;37.044;22.128;2022-10-16T04:38:46;21.50;45.60
73322;DHT22;61549;37.044;22.128;2022-10-16T04:41:12;21.50;43.10
73322;DHT22;61549;37.044;22.128;2022-10-16T04:43:38;21.40;44.20
73322;DHT22;61549;37.044;22.128;2022-10-16T04:46:04;21.30;43.70
73322;DHT22;61549;37.044;22.128;2022-10-16T04:48:31;21.40;43.70
73322;DHT22;61549;37.044;22.128;2022-10-16T04:50:57;21.50;44.10
73322;DHT22;61549;37.044;22.128;2022-10-16T04:53:23;21.50;44.60
73322;DHT22;61549;37.044;22.128;2022-10-16T04:55:49;21.60;45.60
73322;DHT22;61549;37.044;22.128;2022-10-16T04:58:16;21.50;44.60
73322;DHT22;61549;37.044;22.128;2022-10-16T05:00:42;21.50;44.70
73322;DHT22;61549;37.044;22.128;2022-10-16T05:03:09;21.50;44.60
73322;DHT22;61549;37.044;22.128;2022-10-16T05:05:36;21.50;45.30
73322;DHT22;61549;37.044;22.128;2022-10-16T05:08:02;21.50;44.70
73322;DHT22;61549;37.044;22.128;2022-10-16T05:10:28;21.50;44.00
73322;DHT22;61549;37.044;22.128;2022-10-16T05:12:54;21.60;43.70
73322;DHT22;61549;37.044;22.128;2022-10-16T05:15:23;21.60;43.40
73322;DHT22;61549;37.044;22.128;2022-10-16T05:17:53;21.60;42.70
73322;DHT22;61549;37.044;22.128;2022-10-16T05:20:19;21.60;43.20
73322;DHT22;61549;37.044;22.128;2022-10-16T05:22:45;21.60;43.70
73322;DHT22;61549;37.044;22.128;2022-10-16T05:25:11;21.70;43.80
73322;DHT22;61549;37.044;22.128;2022-10-16T05:27:37;21.70;43.50
73322;DHT22;61549;37.044;22.128;2022-10-16T05:30:03;21.70;42.90
73322;DHT22;61549;37.044;22.128;2022-10-16T05:32:29;21.80;42.50
73322;DHT22;61549;37.044;22.128;2022-10-16T05:34:55;21.80;42.50
73322;DHT22;61549;37.044;22.128;2022-10-16T05:37:20;21.90;42.10
73322;DHT22;61549;37.044;22.128;2022-10-16T05:39:46;22.00;42.10
73322;DHT22;61549;37.044;22.128;2022-10-16T05:42:12;22.20;42.00
73322;DHT22;61549;37.044;22.128;2022-10-16T05:44:38;22.30;42.00
73322;DHT22;61549;37.044;22.128;2022-10-16T05:47:04;22.40;41.80
73322;DHT22;61549;37.044;22.128;2022-10-16T05:49:30;22.50;42.20
73322;DHT22;61549;37.044;22.128;2022-10-16T05:51:56;22.50;41.90
73322;DHT22;61549;37.044;22.128;2022-10-16T05:54:21;22.60;42.00
73322;DHT22;61549;37.044;22.128;2022-10-16T05:56:47;22.80;41.60
73322;DHT22;61549;37.044;22.128;2022-10-16T05:59:13;22.80;42.00
73322;DHT22;61549;37.044;22.128;2022-10-16T06:01:39;22.90;42.10
73322;DHT22;61549;37.044;22.128;2022-10-16T06:04:05;23.10;42.20
73322;DHT22;61549;37.044;22.128;2022-10-16T06:06:31;23.30;41.90
73322;DHT22;61549;37.044;22.128;2022-10-16T06:08:57;23.40;41.50
73322;DHT22;61549;37.044;22.128;2022-10-16T06:11:25;23.50;41.00
73322;DHT22;61549;37.044;22.128;2022-10-16T06:13:56;23.60;41.10
73322;DHT22;61549;37.044;22.128;2022-10-16T06:16:24;23.60;41.90
73322;DHT22;61549;37.044;22.128;2022-10-16T06:18:52;23.80;41.10
73322;DHT22;61549;37.044;22.128;2022-10-16T06:21:20;23.90;41.70
73322;DHT22;61549;37.044;22.128;2022-10-16T06:23:47;24.00;40.80
73322;DHT22;61549;37.044;22.128;2022-10-16T06:26:15;24.20;41.10
73322;DHT22;61549;37.044;22.128;2022-10-16T06:28:41;24.30;40.90
73322;DHT22;61549;37.044;22.128;2022-10-16T06:31:09;24.50;40.50
73322;DHT22;61549;37.044;22.128;2022-10-16T06:33:36;24.70;40.30
73322;DHT22;61549;37.044;22.128;2022-10-16T06:36:06;24.80;41.00
73322;DHT22;61549;37.044;22.128;2022-10-16T06:38:32;24.90;40.40
73322;DHT22;61549;37.044;22.128;2022-10-16T06:40:59;25.00;40.40
73322;DHT22;61549;37.044;22.128;2022-10-16T06:43:25;25.10;40.50
73322;DHT22;61549;37.044;22.128;2022-10-16T06:45:55;25.20;40.50
73322;DHT22;61549;37.044;22.128;2022-10-16T06:48:22;25.30;39.60
73322;DHT22;61549;37.044;22.128;2022-10-16T06:51:11;25.50;39.40
73322;DHT22;61549;37.044;22.128;2022-10-16T06:53:40;25.60;38.40
73322;DHT22;61549;37.044;22.128;2022-10-16T06:56:17;25.70;38.70
73322;DHT22;61549;37.044;22.128;2022-10-16T06:58:44;25.80;39.10
73322;DHT22;61549;37.044;22.128;2022-10-16T07:01:11;25.90;39.70
73322;DHT22;61549;37.044;22.128;2022-10-16T07:03:45;26.00;39.10
73322;DHT22;61549;37.044;22.128;2022-10-16T07:06:13;26.10;38.90
73322;DHT22;61549;37.044;22.128;2022-10-16T07:08:41;26.20;38.10
73322;DHT22;61549;37.044;22.128;2022-10-16T07:11:09;26.30;38.50
73322;DHT22;61549;37.044;22.128;2022-10-16T07:13:37;26.40;38.70
73322;DHT22;61549;37.044;22.128;2022-10-16T07:16:17;26.50;37.90
73322;DHT22;61549;37.044;22.128;2022-10-16T07:18:44;26.60;39.50
73322;DHT22;61549;37.044;22.128;2022-10-16T07:21:12;26.70;38.80
73322;DHT22;61549;37.044;22.128;2022-10-16T07:23:38;26.80;38.20
73322;DHT22;61549;37.044;22.128;2022-10-16T07:26:05;26.80;37.80
73322;DHT22;61549;37.044;22.128;2022-10-16T07:28:33;26.90;38.20
73322;DHT22;61549;37.044;22.128;2022-10-16T07:31:07;27.00;37.80
73322;DHT22;61549;37.044;22.128;2022-10-16T07:33:37;27.20;37.50
73322;DHT22;61549;37.044;22.128;2022-10-16T07:36:06;27.20;37.50
73322;DHT22;61549;37.044;22.128;2022-10-16T07:38:33;27.30;37.00
73322;DHT22;61549;37.044;22.128;2022-10-16T07:41:04;27.30;36.90
73322;DHT22;61549;37.044;22.128;2022-10-16T07:43:30;27.20;36.90
73322;DHT22;61549;37.044;22.128;2022-10-16T07:45:56;27.30;36.90
73322;DHT22;61549;37.044;22.128;2022-10-16T07:48:24;27.20;37.30
73322;DHT22;61549;37.044;22.128;2022-10-16T07:50:50;27.40;37.70
73322;DHT22;61549;37.044;22.128;2022-10-16T07:53:16;27.50;37.20
73322;DHT22;61549;37.044;22.128;2022-10-16T07:55:42;27.60;37.40
73322;DHT22;61549;37.044;22.128;2022-10-16T07:58:09;27.80;37.80
73322;DHT22;61549;37.044;22.128;2022-10-16T08:00:37;27.90;36.70
73322;DHT22;61549;37.044;22.128;2022-10-16T08:03:03;27.90;36.80
73322;DHT22;61549;37.044;22.128;2022-10-16T08:05:30;28.00;36.70
73322;DHT22;61549;37.044;22.128;2022-10-16T08:07:57;28.10;37.10
73322;DHT22;61549;37.044;22.128;2022-10-16T08:10:25;28.20;36.80
73322;DHT22;61549;37.044;22.128;2022-10-16T08:12:52;28.30;36.40
73322;DHT22;61549;37.044;22.128;2022-10-16T08:15:19;28.40;36.70
73322;DHT22;61549;37.044;22.128;2022-10-16T08:17:55;28.40;36.60
73322;DHT22;61549;37.044;22.128;2022-10-16T08:20:20;28.50;36.50
73322;DHT22;61549;37.044;22.128;2022-10-16T08:22:46;28.50;36.70
73322;DHT22;61549;37.044;22.128;2022-10-16T08:25:14;28.50;37.30
73322;DHT22;61549;37.044;22.128;2022-10-16T08:27:40;28.60;37.10
73322;DHT22;61549;37.044;22.128;2022-10-16T08:30:07;28.60;36.80
73322;DHT22;61549;37.044;22.128;2022-10-16T08:32:33;28.70;35.80
73322;DHT22;61549;37.044;22.128;2022-10-16T08:34:59;28.70;36.00
73322;DHT22;61549;37.044;22.128;2022-10-16T08:37:30;28.80;36.20
73322;DHT22;61549;37.044;22.128;2022-10-16T08:39:57;28.80;35.60
73322;DHT22;61549;37.044;22.128;2022-10-16T08:42:29;28.80;35.60
73322;DHT22;61549;37.044;22.128;2022-10-16T08:50:24;28.90;35.80
73322;DHT22;61549;37.044;22.128;2022-10-16T08:52:52;28.90;36.50
73322;DHT22;61549;37.044;22.128;2022-10-16T08:55:44;28.90;37.00
73322;DHT22;61549;37.044;22.128;2022-10-16T08:58:17;29.00;36.90
73322;DHT22;61549;37.044;22.128;2022-10-16T09:00:53;29.20;36.70
73322;DHT22;61549;37.044;22.128;2022-10-16T09:05:51;29.20;35.10
73322;DHT22;61549;37.044;22.128;2022-10-16T09:08:42;28.90;37.00
73322;DHT22;61549;37.044;22.128;2022-10-16T09:14:32;28.60;38.50
73322;DHT22;61549;37.044;22.128;2022-10-16T09:17:18;28.70;35.10
73322;DHT22;61549;37.044;22.128;2022-10-16T09:19:54;28.70;36.60
73322;DHT22;61549;37.044;22.128;2022-10-16T09:22:49;28.80;35.80
73322;DHT22;61549;37.044;22.128;2022-10-16T09:25:20;29.00;35.10
73322;DHT22;61549;37.044;22.128;2022-10-16T09:27:48;29.00;35.50
73322;DHT22;61549;37.044;22.128;2022-10-16T09:30:19;29.10;36.10
73322;DHT22;61549;37.044;22.128;2022-10-16T09:32:49;29.30;37.00
73322;DHT22;61549;37.044;22.128;2022-10-16T09:35:27;29.50;35.70
73322;DHT22;61549;37.044;22.128;2022-10-16T09:37:56;29.60;35.90
73322;DHT22;61549;37.044;22.128;2022-10-16T09:40:37;29.70;35.60
73322;DHT22;61549;37.044;22.128;2022-10-16T09:43:18;29.80;34.80
73322;DHT22;61549;37.044;22.128;2022-10-16T09:45:59;29.70;37.10
73322;DHT22;61549;37.044;22.128;2022-10-16T09:48:37;29.40;35.60
73322;DHT22;61549;37.044;22.128;2022-10-16T09:51:13;29.30;36.40
73322;DHT22;61549;37.044;22.128;2022-10-16T09:53:44;29.50;35.50
73322;DHT22;61549;37.044;22.128;2022-10-16T09:56:31;29.50;35.70
73322;DHT22;61549;37.044;22.128;2022-10-16T09:59:15;29.60;35.30
73322;DHT22;61549;37.044;22.128;2022-10-16T10:01:49;29.50;35.20
73322;DHT22;61549;37.044;22.128;2022-10-16T10:04:23;29.50;35.00
73322;DHT22;61549;37.044;22.128;2022-10-16T10:06:53;29.50;35.20
73322;DHT22;61549;37.044;22.128;2022-10-16T10:11:56;29.50;35.20
73322;DHT22;61549;37.044;22.128;2022-10-16T10:14:28;29.60;34.80
73322;DHT22;61549;37.044;22.128;2022-10-16T10:17:14;29.60;35.20
73322;DHT22;61549;37.044;22.128;2022-10-16T10:20:00;29.50;35.60
73322;DHT22;61549;37.044;22.128;2022-10-16T10:22:43;29.40;34.40
73322;DHT22;61549;37.044;22.128;2022-10-16T10:30:34;29.30;35.80
73322;DHT22;61549;37.044;22.128;2022-10-16T10:33:31;29.00;36.20
73322;DHT22;61549;37.044;22.128;2022-10-16T10:46:37;28.90;36.60
73322;DHT22;61549;37.044;22.128;2022-10-16T10:57:23;29.00;36.20
73322;DHT22;61549;37.044;22.128;2022-10-16T11:03:14;28.90;37.10
73322;DHT22;61549;37.044;22.128;2022-10-16T11:11:11;28.60;36.20
73322;DHT22;61549;37.044;22.128;2022-10-16T11:14:03;28.70;38.10
73322;DHT22;61549;37.044;22.128;2022-10-16T11:16:36;28.80;36.30
73322;DHT22;61549;37.044;22.128;2022-10-16T11:22:33;28.90;37.70
73322;DHT22;61549;37.044;22.128;2022-10-16T11:25:13;28.90;37.90
73322;DHT22;61549;37.044;22.128;2022-10-16T11:30:31;28.70;38.90
73322;DHT22;61549;37.044;22.128;2022-10-16T11:40:59;28.40;38.50
73322;DHT22;61549;37.044;22.128;2022-10-16T11:43:35;28.30;38.40
73322;DHT22;61549;37.044;22.128;2022-10-16T11:46:13;28.50;38.70
73322;DHT22;61549;37.044;22.128;2022-10-16T11:52:17;28.50;38.90
73322;DHT22;61549;37.044;22.128;2022-10-16T11:55:14;28.40;39.70
73322;DHT22;61549;37.044;22.128;2022-10-16T11:57:49;28.40;39.60
73322;DHT22;61549;37.044;22.128;2022-10-16T12:00:45;28.30;38.70
73322;DHT22;61549;37.044;22.128;2022-10-16T12:08:28;28.30;39.10
73322;DHT22;61549;37.044;22.128;2022-10-16T12:11:09;28.40;38.70
73322;DHT22;61549;37.044;22.128;2022-10-16T12:13:46;28.50;39.50
73322;DHT22;61549;37.044;22.128;2022-10-16T12:18:41;28.20;38.20
73322;DHT22;61549;37.044;22.128;2022-10-16T12:21:07;27.90;38.20
73322;DHT22;61549;37.044;22.128;2022-10-16T12:23:38;27.90;38.90
73322;DHT22;61549;37.044;22.128;2022-10-16T12:26:05;27.90;39.10
73322;DHT22;61549;37.044;22.128;2022-10-16T12:28:34;27.90;39.10
73322;DHT22;61549;37.044;22.128;2022-10-16T12:31:04;27.80;39.60
73322;DHT22;61549;37.044;22.128;2022-10-16T12:33:40;27.90;39.10
73322;DHT22;61549;37.044;22.128;2022-10-16T12:36:15;28.00;39.30
73322;DHT22;61549;37.044;22.128;2022-10-16T12:38:51;28.20;39.10
73322;DHT22;61549;37.044;22.128;2022-10-16T12:41:30;28.50;39.40
73322;DHT22;61549;37.044;22.128;2022-10-16T12:43:57;28.50;39.30
73322;DHT22;61549;37.044;22.128;2022-10-16T12:46:38;28.50;38.70
73322;DHT22;61549;37.044;22.128;2022-10-16T12:51:42;28.70;38.00
73322;DHT22;61549;37.044;22.128;2022-10-16T12:54:15;28.70;38.40
73322;DHT22;61549;37.044;22.128;2022-10-16T13:10:26;28.30;38.60
73322;DHT22;61549;37.044;22.128;2022-10-16T13:16:02;28.00;39.80
73322;DHT22;61549;37.044;22.128;2022-10-16T13:18:54;27.90;39.90
73322;DHT22;61549;37.044;22.128;2022-10-16T13:29:35;27.80;40.90
73322;DHT22;61549;37.044;22.128;2022-10-16T13:32:06;27.80;41.30
73322;DHT22;61549;37.044;22.128;2022-10-16T13:34:33;27.90;41.50
73322;DHT22;61549;37.044;22.128;2022-10-16T13:36:58;28.00;41.50
73322;DHT22;61549;37.044;22.128;2022-10-16T13:39:29;27.80;40.20
73322;DHT22;61549;37.044;22.128;2022-10-16T13:42:02;27.60;39.50
73322;DHT22;61549;37.044;22.128;2022-10-16T13:44:35;27.50;40.00
73322;DHT22;61549;37.044;22.128;2022-10-16T13:47:02;27.40;40.40
73322;DHT22;61549;37.044;22.128;2022-10-16T13:49:28;27.50;40.90
73322;DHT22;61549;37.044;22.128;2022-10-16T13:52:03;27.40;40.90
73322;DHT22;61549;37.044;22.128;2022-10-16T13:54:31;27.40;41.10
73322;DHT22;61549;37.044;22.128;2022-10-16T13:57:05;27.30;41.20
73322;DHT22;61549;37.044;22.128;2022-10-16T13:59:35;27.20;41.30
73322;DHT22;61549;37.044;22.128;2022-10-16T14:02:15;27.20;41.30
73322;DHT22;61549;37.044;22.128;2022-10-16T14:04:42;27.30;41.00
73322;DHT22;61549;37.044;22.128;2022-10-16T14:07:14;27.10;40.90
73322;DHT22;61549;37.044;22.128;2022-10-16T14:09:42;26.90;41.40
73322;DHT22;61549;37.044;22.128;2022-10-16T14:12:12;27.20;41.70
73322;DHT22;61549;37.044;22.128;2022-10-16T14:14:50;27.20;41.40
73322;DHT22;61549;37.044;22.128;2022-10-16T14:17:27;27.50;42.00
73322;DHT22;61549;37.044;22.128;2022-10-16T14:19:56;27.40;41.40
73322;DHT22;61549;37.044;22.128;2022-10-16T14:22:37;27.40;42.00
73322;DHT22;61549;37.044;22.128;2022-10-16T14:28:15;27.20;43.30
73322;DHT22;61549;37.044;22.128;2022-10-16T14:33:53;27.30;43.50
73322;DHT22;61549;37.044;22.128;2022-10-16T14:36:19;27.40;43.80
73322;DHT22;61549;37.044;22.128;2022-10-16T14:39:17;27.30;44.10
73322;DHT22;61549;37.044;22.128;2022-10-16T14:41:50;27.40;44.30
73322;DHT22;61549;37.044;22.128;2022-10-16T14:44:18;27.40;44.00
73322;DHT22;61549;37.044;22.128;2022-10-16T14:46:45;27.30;44.10
73322;DHT22;61549;37.044;22.128;2022-10-16T14:51:39;27.10;44.30
73322;DHT22;61549;37.044;22.128;2022-10-16T14:54:13;27.10;44.80
73322;DHT22;61549;37.044;22.128;2022-10-16T14:56:54;27.10;45.00
73322;DHT22;61549;37.044;22.128;2022-10-16T14:59:32;27.10;44.60
73322;DHT22;61549;37.044;22.128;2022-10-16T15:01:59;27.10;44.00
73322;DHT22;61549;37.044;22.128;2022-10-16T15:04:25;27.00;44.20
73322;DHT22;61549;37.044;22.128;2022-10-16T15:06:51;26.90;43.90
73322;DHT22;61549;37.044;22.128;2022-10-16T15:09:17;27.00;44.00
73322;DHT22;61549;37.044;22.128;2022-10-16T15:11:43;26.90;44.00
73322;DHT22;61549;37.044;22.128;2022-10-16T15:14:12;27.00;43.60
73322;DHT22;61549;37.044;22.128;2022-10-16T15:16:39;27.00;44.00
73322;DHT22;61549;37.044;22.128;2022-10-16T15:19:05;26.90;44.10
73322;DHT22;61549;37.044;22.128;2022-10-16T15:21:32;26.90;44.00
73322;DHT22;61549;37.044;22.128;2022-10-16T15:23:59;26.80;44.50
73322;DHT22;61549;37.044;22.128;2022-10-16T15:26:27;26.80;45.30
73322;DHT22;61549;37.044;22.128;2022-10-16T15:28:53;26.90;44.90
73322;DHT22;61549;37.044;22.128;2022-10-16T15:31:20;26.90;44.30
73322;DHT22;61549;37.044;22.128;2022-10-16T15:33:51;26.80;44.20
73322;DHT22;61549;37.044;22.128;2022-10-16T15:36:27;26.80;44.90
73322;DHT22;61549;37.044;22.128;2022-10-16T15:38:53;26.70;45.30
73322;DHT22;61549;37.044;22.128;2022-10-16T15:41:20;26.70;45.40
73322;DHT22;61549;37.044;22.128;2022-10-16T15:43:48;26.60;45.30
73322;DHT22;61549;37.044;22.128;2022-10-16T15:46:15;26.50;47.30
73322;DHT22;61549;37.044;22.128;2022-10-16T15:48:42;26.50;49.00
73322;DHT22;61549;37.044;22.128;2022-10-16T15:51:09;26.40;49.90
73322;DHT22;61549;37.044;22.128;2022-10-16T15:53:35;26.30;49.70
73322;DHT22;61549;37.044;22.128;2022-10-16T15:56:06;26.20;50.00
73322;DHT22;61549;37.044;22.128;2022-10-16T15:58:33;26.00;50.80
73322;DHT22;61549;37.044;22.128;2022-10-16T16:01:00;25.90;51.40
73322;DHT22;61549;37.044;22.128;2022-10-16T16:03:28;25.80;51.90
73322;DHT22;61549;37.044;22.128;2022-10-16T16:05:54;25.60;52.30
73322;DHT22;61549;37.044;22.128;2022-10-16T16:08:21;25.50;52.70
73322;DHT22;61549;37.044;22.128;2022-10-16T16:10:58;25.40;52.70
73322;DHT22;61549;37.044;22.128;2022-10-16T16:13:24;25.30;52.80
73322;DHT22;61549;37.044;22.128;2022-10-16T16:15:50;25.20;52.70
73322;DHT22;61549;37.044;22.128;2022-10-16T16:18:17;25.10;52.50
73322;DHT22;61549;37.044;22.128;2022-10-16T16:20:44;25.10;52.70
73322;DHT22;61549;37.044;22.128;2022-10-16T16:23:10;25.00;52.70
73322;DHT22;61549;37.044;22.128;2022-10-16T16:25:36;25.00;53.00
73322;DHT22;61549;37.044;22.128;2022-10-16T16:28:02;24.90;53.20
73322;DHT22;61549;37.044;22.128;2022-10-16T16:30:28;24.90;53.30
73322;DHT22;61549;37.044;22.128;2022-10-16T16:32:58;24.80;53.30
73322;DHT22;61549;37.044;22.128;2022-10-16T16:35:24;24.80;53.30
73322;DHT22;61549;37.044;22.128;2022-10-16T16:37:50;24.70;53.60
73322;DHT22;61549;37.044;22.128;2022-10-16T16:40:15;24.70;53.60
73322;DHT22;61549;37.044;22.128;2022-10-16T16:42:41;24.70;53.30
73322;DHT22;61549;37.044;22.128;2022-10-16T16:45:08;24.70;53.00
73322;DHT22;61549;37.044;22.128;2022-10-16T16:47:34;24.60;52.10
73322;DHT22;61549;37.044;22.128;2022-10-16T16:50:00;24.70;51.00
73322;DHT22;61549;37.044;22.128;2022-10-16T16:52:30;24.70;50.40
73322;DHT22;61549;37.044;22.128;2022-10-16T16:54:56;24.60;48.90
73322;DHT22;61549;37.044;22.128;2022-10-16T16:57:24;24.60;47.90
73322;DHT22;61549;37.044;22.128;2022-10-16T16:59:52;24.60;47.30
73322;DHT22;61549;37.044;22.128;2022-10-16T17:02:18;24.70;47.40
73322;DHT22;61549;37.044;22.128;2022-10-16T17:04:44;24.70;47.50
73322;DHT22;61549;37.044;22.128;2022-10-16T17:07:10;24.80;47.40
73322;DHT22;61549;37.044;22.128;2022-10-16T17:09:36;24.80;47.10
73322;DHT22;61549;37.044;22.128;2022-10-16T17:12:02;24.70;46.50
73322;DHT22;61549;37.044;22.128;2022-10-16T17:14:28;24.80;45.20
73322;DHT22;61549;37.044;22.128;2022-10-16T17:16:54;24.80;44.00
73322;DHT22;61549;37.044;22.128;2022-10-16T17:19:19;24.80;43.10
73322;DHT22;61549;37.044;22.128;2022-10-16T17:21:49;24.70;43.10
73322;DHT22;61549;37.044;22.128;2022-10-16T17:24:15;24.70;42.80
73322;DHT22;61549;37.044;22.128;2022-10-16T17:26:41;24.70;42.90
73322;DHT22;61549;37.044;22.128;2022-10-16T17:29:11;24.70;42.80
73322;DHT22;61549;37.044;22.128;2022-10-16T17:31:37;24.60;42.60
73322;DHT22;61549;37.044;22.128;2022-10-16T17:34:09;24.60;42.50
73322;DHT22;61549;37.044;22.128;2022-10-16T17:36:37;24.50;42.40